createdAt,value
2022-11-27T00:02:23.919Z,7.32
2022-11-27T00:04:51.928Z,6.25
2022-11-27T00:07:21.983Z,3.63
2022-11-27T00:09:55.831Z,4.80
2022-11-27T00:12:29.511Z,5.28
2022-11-27T00:15:18.907Z,9.07
2022-11-27T00:17:47.098Z,2.17
2022-11-27T00:20:15.576Z,14.82
2022-11-27T00:22:46.038Z,8.45
2022-11-27T00:25:23.428Z,7.20
2022-11-27T00:27:54.423Z,5.00
2022-11-27T00:30:22.456Z,5.28
2022-11-27T00:32:53.218Z,3.50
2022-11-27T00:35:21.231Z,7.90
2022-11-27T00:37:52.323Z,6.75
2022-11-27T00:40:23.036Z,7.20
2022-11-27T00:45:18.909Z,5.90
2022-11-27T00:47:47.000Z,5.60
2022-11-27T00:50:15.249Z,5.82
2022-11-27T00:52:43.623Z,2.67
2022-11-27T00:55:12.861Z,6.15
2022-11-27T00:57:46.360Z,6.00
2022-11-27T01:00:15.068Z,8.15
2022-11-27T01:02:43.741Z,6.28
2022-11-27T01:05:11.644Z,11.30
2022-11-27T01:07:39.443Z,8.02
2022-11-27T01:10:10.580Z,12.13
2022-11-27T01:12:38.564Z,7.10
2022-11-27T01:15:06.968Z,4.72
2022-11-27T01:17:36.233Z,6.43
2022-11-27T01:20:05.020Z,4.18
2022-11-27T01:22:33.815Z,10.32
2022-11-27T01:25:01.506Z,5.43
2022-11-27T01:27:30.373Z,7.65
2022-11-27T01:29:58.344Z,6.80
2022-11-27T01:32:29.174Z,3.60
2022-11-27T01:34:59.970Z,7.00
2022-11-27T01:37:29.619Z,5.60
2022-11-27T01:39:57.394Z,3.08
2022-11-27T01:42:25.276Z,9.50
2022-11-27T01:44:56.126Z,6.43
2022-11-27T01:47:35.598Z,3.05
2022-11-27T01:50:09.754Z,8.95
2022-11-27T01:52:46.801Z,9.23
2022-11-27T01:55:22.310Z,5.70
2022-11-27T01:57:58.124Z,4.10
2022-11-27T02:00:26.693Z,6.20
2022-11-27T02:02:54.627Z,9.55
2022-11-27T02:05:31.660Z,4.93
2022-11-27T02:08:03.057Z,5.22
2022-11-27T02:10:52.405Z,5.72
2022-11-27T02:13:26.095Z,8.27
2022-11-27T02:15:59.866Z,7.45
2022-11-27T02:18:44.929Z,3.17
2022-11-27T02:21:42.152Z,5.97
2022-11-27T02:24:48.085Z,6.07
2022-11-27T02:27:56.548Z,9.20
2022-11-27T02:30:24.326Z,4.70
2022-11-27T02:33:01.054Z,5.70
2022-11-27T02:35:38.563Z,3.72
2022-11-27T02:38:14.020Z,8.55
2022-11-27T02:40:54.861Z,3.17
2022-11-27T02:43:30.785Z,8.73
2022-11-27T02:46:04.141Z,3.55
2022-11-27T02:48:39.514Z,10.35
2022-11-27T02:51:09.568Z,6.63
2022-11-27T02:53:44.294Z,8.48
2022-11-27T02:56:17.334Z,1.85
2022-11-27T02:58:50.930Z,3.03
2022-11-27T03:01:22.271Z,8.85
2022-11-27T03:03:54.850Z,1.70
2022-11-27T03:06:33.945Z,4.47
2022-11-27T03:09:14.023Z,3.40
2022-11-27T03:11:46.326Z,6.10
2022-11-27T03:14:15.053Z,4.68
2022-11-27T03:17:03.772Z,8.13
2022-11-27T03:19:55.289Z,4.30
2022-11-27T03:22:23.331Z,2.50
2022-11-27T03:24:54.114Z,6.10
2022-11-27T03:27:34.623Z,5.40
2022-11-27T03:30:08.473Z,10.00
2022-11-27T03:32:39.470Z,6.07
2022-11-27T03:35:14.413Z,4.57
2022-11-27T03:37:46.535Z,4.60
2022-11-27T03:40:15.258Z,8.52
2022-11-27T03:43:21.493Z,3.42
2022-11-27T03:46:07.842Z,4.97
2022-11-27T03:48:43.168Z,5.72
2022-11-27T03:51:22.041Z,7.53
2022-11-27T03:54:05.112Z,3.25
2022-11-27T03:56:40.168Z,3.47
2022-11-27T03:59:15.193Z,5.57
2022-11-27T04:01:45.735Z,2.35
2022-11-27T04:04:16.630Z,8.80
2022-11-27T04:09:21.924Z,3.57
2022-11-27T04:11:49.842Z,2.80
2022-11-27T04:14:26.547Z,5.13
2022-11-27T04:17:14.012Z,10.70
2022-11-27T04:19:44.922Z,7.32
2022-11-27T04:22:13.037Z,6.45
2022-11-27T04:24:46.379Z,5.00
2022-11-27T04:27:14.676Z,1.13
2022-11-27T04:29:42.669Z,5.70
2022-11-27T04:32:10.961Z,5.18
2022-11-27T04:34:39.011Z,5.72
2022-11-27T04:37:16.352Z,3.30
2022-11-27T04:39:44.283Z,11.20
2022-11-27T04:42:15.032Z,6.22
2022-11-27T04:44:43.230Z,5.07
2022-11-27T04:47:11.395Z,4.50
2022-11-27T04:49:39.380Z,4.90
2022-11-27T04:52:08.701Z,4.32
2022-11-27T04:57:24.020Z,2.97
2022-11-27T04:59:52.014Z,3.72
2022-11-27T05:02:21.000Z,6.13
2022-11-27T05:04:51.107Z,2.85
2022-11-27T05:07:18.922Z,4.55
2022-11-27T05:09:48.674Z,5.40
2022-11-27T05:12:20.339Z,4.80
2022-11-27T05:15:01.761Z,5.90
2022-11-27T05:17:40.733Z,6.50
2022-11-27T05:20:09.450Z,6.30
2022-11-27T05:22:37.689Z,4.47
2022-11-27T05:25:12.925Z,6.03
2022-11-27T05:27:41.386Z,1.55
2022-11-27T05:30:10.872Z,6.68
2022-11-27T05:32:41.958Z,2.67
2022-11-27T05:35:12.009Z,5.47
2022-11-27T05:37:41.232Z,2.40
2022-11-27T05:40:15.543Z,4.60
2022-11-27T05:42:47.129Z,4.72
2022-11-27T05:45:15.273Z,5.00
2022-11-27T05:47:43.216Z,4.47
2022-11-27T05:50:11.988Z,6.70
2022-11-27T05:52:40.016Z,5.00
2022-11-27T05:55:08.370Z,1.48
2022-11-27T05:57:39.420Z,3.95
2022-11-27T06:00:10.969Z,3.95
2022-11-27T06:02:41.786Z,2.47
2022-11-27T06:05:14.296Z,1.60
2022-11-27T06:07:45.053Z,2.58
2022-11-27T06:10:20.978Z,1.88
2022-11-27T06:12:49.905Z,1.67
2022-11-27T06:15:22.154Z,1.30
2022-11-27T06:17:57.887Z,6.25
2022-11-27T06:20:31.307Z,2.22
2022-11-27T06:23:09.810Z,2.58
2022-11-27T06:25:37.780Z,2.75
2022-11-27T06:28:08.709Z,1.27
2022-11-27T06:30:38.225Z,5.07
2022-11-27T06:33:09.702Z,2.05
2022-11-27T06:35:37.710Z,4.40
2022-11-27T06:38:09.089Z,1.23
2022-11-27T06:40:38.109Z,3.10
2022-11-27T06:43:08.264Z,2.88
2022-11-27T06:48:09.492Z,2.33
2022-11-27T06:50:37.726Z,0.90
2022-11-27T06:55:39.516Z,1.10
2022-11-27T06:58:14.284Z,2.75
2022-11-27T07:00:43.729Z,1.63
2022-11-27T07:03:12.245Z,3.95
2022-11-27T07:05:42.620Z,0.80
2022-11-27T07:09:19.065Z,2.88
2022-11-27T07:11:52.676Z,4.78
2022-11-27T07:14:35.383Z,1.90
2022-11-27T07:17:19.173Z,1.80
2022-11-27T07:19:56.610Z,4.43
2022-11-27T07:22:29.948Z,3.17
2022-11-27T07:24:58.276Z,0.88
2022-11-27T07:27:32.394Z,1.65
2022-11-27T07:30:15.625Z,1.55
2022-11-27T07:32:49.129Z,3.50
2022-11-27T07:35:27.185Z,3.22
2022-11-27T07:38:03.538Z,1.33
2022-11-27T07:40:37.688Z,5.18
2022-11-27T07:43:07.609Z,1.75
2022-11-27T07:45:40.151Z,6.07
2022-11-27T07:48:20.311Z,3.30
2022-11-27T07:50:48.552Z,1.53
2022-11-27T07:53:19.439Z,2.85
2022-11-27T07:55:51.553Z,1.02
2022-11-27T07:58:22.740Z,2.92
2022-11-27T08:00:50.956Z,3.85
2022-11-27T08:03:18.810Z,3.33
2022-11-27T08:05:53.200Z,2.03
2022-11-27T08:08:46.695Z,3.42
2022-11-27T08:11:55.740Z,2.58
2022-11-27T08:14:26.760Z,2.22
2022-11-27T08:17:14.056Z,2.40
2022-11-27T08:19:47.951Z,2.85
2022-11-27T08:22:24.020Z,3.47
2022-11-27T08:24:57.458Z,3.38
2022-11-27T08:27:40.497Z,1.48
2022-11-27T08:30:28.242Z,4.43
2022-11-27T08:33:02.243Z,4.80
2022-11-27T08:35:54.686Z,3.53
2022-11-27T08:38:36.644Z,2.30
2022-11-27T08:41:22.366Z,4.70
2022-11-27T08:43:51.280Z,6.47
2022-11-27T08:46:32.224Z,6.18
2022-11-27T08:49:51.496Z,1.95
2022-11-27T08:52:15.335Z,6.30
2022-11-27T08:54:57.559Z,3.63
2022-11-27T08:57:29.874Z,3.15
2022-11-27T09:00:07.252Z,5.45
2022-11-27T09:02:48.353Z,2.17
2022-11-27T09:05:16.774Z,6.32
2022-11-27T09:07:56.755Z,3.07
2022-11-27T09:10:32.976Z,5.03
2022-11-27T09:13:02.349Z,5.07
2022-11-27T09:15:31.444Z,4.22
2022-11-27T09:18:11.093Z,8.88
2022-11-27T09:20:40.762Z,4.60
2022-11-27T09:23:23.148Z,5.35
2022-11-27T09:26:11.962Z,4.60
2022-11-27T09:28:45.022Z,2.20
2022-11-27T09:31:15.678Z,8.65
2022-11-27T09:36:20.060Z,4.25
2022-11-27T09:38:48.136Z,5.43
2022-11-27T09:41:59.010Z,7.03
2022-11-27T09:44:54.406Z,6.45
2022-11-27T09:48:02.537Z,5.97
2022-11-27T09:51:01.005Z,8.60
2022-11-27T09:53:53.780Z,4.30
2022-11-27T09:56:26.258Z,5.22
2022-11-27T09:59:05.152Z,6.22
2022-11-27T10:01:42.106Z,9.75
2022-11-27T10:04:17.041Z,8.07
2022-11-27T10:07:17.855Z,4.85
2022-11-27T10:10:21.896Z,5.13
2022-11-27T10:13:09.273Z,9.85
2022-11-27T10:16:00.309Z,5.85
2022-11-27T10:18:52.271Z,9.57
2022-11-27T10:21:58.816Z,11.75
2022-11-27T10:24:52.239Z,6.05
2022-11-27T10:27:55.945Z,5.43
2022-11-27T10:30:28.993Z,8.70
2022-11-27T10:33:05.006Z,9.18
2022-11-27T10:35:38.272Z,4.50
2022-11-27T10:38:25.276Z,2.83
2022-11-27T10:41:48.249Z,8.18
2022-11-27T10:44:55.516Z,6.50
2022-11-27T10:47:33.925Z,6.68
2022-11-27T10:50:02.153Z,7.80
2022-11-27T10:53:06.727Z,8.43
2022-11-27T10:55:56.148Z,7.72
2022-11-27T10:58:29.246Z,7.32
2022-11-27T11:01:03.090Z,4.18
2022-11-27T11:07:13.124Z,7.78
2022-11-27T11:09:48.767Z,6.78
2022-11-27T11:12:21.201Z,6.82
2022-11-27T11:15:01.805Z,4.60
2022-11-27T11:17:37.935Z,4.53
2022-11-27T11:20:23.101Z,6.75
2022-11-27T11:22:54.672Z,3.80
2022-11-27T11:28:52.926Z,5.53
2022-11-27T11:32:03.306Z,6.25
2022-11-27T11:35:16.943Z,9.90
2022-11-27T11:38:15.093Z,6.80
2022-11-27T11:41:38.461Z,8.65
2022-11-27T11:44:58.663Z,6.95
2022-11-27T11:47:41.893Z,4.40
2022-11-27T11:51:08.524Z,7.00
2022-11-27T11:54:17.621Z,6.72
2022-11-27T11:57:58.953Z,3.50
2022-11-27T12:01:25.448Z,10.70
2022-11-27T12:04:24.747Z,10.18
2022-11-27T12:07:48.979Z,7.50
2022-11-27T12:11:29.766Z,6.40
2022-11-27T12:14:41.797Z,10.45
2022-11-27T12:21:54.758Z,9.52
2022-11-27T12:24:27.441Z,9.25
2022-11-27T12:27:09.830Z,9.43
2022-11-27T12:30:05.564Z,14.68
2022-11-27T12:32:54.747Z,14.32
2022-11-27T12:35:33.367Z,10.40
2022-11-27T12:38:19.147Z,14.88
2022-11-27T12:41:25.790Z,19.58
2022-11-27T12:44:00.164Z,13.80
2022-11-27T12:46:40.124Z,15.75
2022-11-27T12:49:20.464Z,17.75
2022-11-27T12:51:53.887Z,13.98
2022-11-27T12:54:35.320Z,13.38
2022-11-27T12:57:11.467Z,13.07
2022-11-27T13:00:03.109Z,16.30
2022-11-27T13:03:01.411Z,9.98
2022-11-27T13:05:34.207Z,15.38
2022-11-27T13:08:11.331Z,10.32
2022-11-27T13:10:44.887Z,17.75
2022-11-27T13:13:15.670Z,18.42
2022-11-27T13:15:52.269Z,11.40
2022-11-27T13:18:38.759Z,15.27
2022-11-27T13:21:12.314Z,17.27
2022-11-27T13:23:40.117Z,14.52
2022-11-27T13:26:26.588Z,19.10
2022-11-27T13:28:58.480Z,11.20
2022-11-27T13:31:39.239Z,12.85
2022-11-27T13:34:10.172Z,15.70
2022-11-27T13:36:40.861Z,17.45
2022-11-27T13:39:23.780Z,19.77
2022-11-27T13:42:06.233Z,22.02
2022-11-27T13:44:38.187Z,20.17
2022-11-27T13:47:13.433Z,21.55
2022-11-27T13:49:43.424Z,16.17
2022-11-27T13:52:14.596Z,21.67
2022-11-27T13:54:59.489Z,21.48
2022-11-27T13:57:28.878Z,21.23
2022-11-27T14:00:08.151Z,25.83
2022-11-27T14:02:41.679Z,19.70
2022-11-27T14:05:10.467Z,23.80
2022-11-27T14:07:41.658Z,16.60
2022-11-27T14:10:23.356Z,25.60
2022-11-27T14:13:02.502Z,20.20
2022-11-27T14:15:33.125Z,25.70
2022-11-27T14:21:01.934Z,28.38
2022-11-27T14:23:36.141Z,23.65
2022-11-27T14:26:15.164Z,28.88
2022-11-27T14:28:48.530Z,21.83
2022-11-27T14:31:33.985Z,20.48
2022-11-27T14:34:20.835Z,22.80
2022-11-27T14:36:53.043Z,24.15
2022-11-27T14:39:31.212Z,20.40
2022-11-27T14:42:04.851Z,22.50
2022-11-27T14:44:33.144Z,24.88
2022-11-27T14:47:22.873Z,24.52
2022-11-27T14:49:56.128Z,20.95
2022-11-27T14:52:24.537Z,20.83
2022-11-27T14:54:53.211Z,22.08
2022-11-27T14:57:25.374Z,22.60
2022-11-27T15:00:18.384Z,21.67
2022-11-27T15:02:49.106Z,22.25
2022-11-27T15:05:21.559Z,21.33
2022-11-27T15:07:53.160Z,28.55
2022-11-27T15:10:25.572Z,25.20
2022-11-27T15:12:53.710Z,19.05
2022-11-27T15:15:27.616Z,27.08
2022-11-27T15:17:58.444Z,24.08
2022-11-27T15:20:46.381Z,21.77
2022-11-27T15:23:32.219Z,24.65
2022-11-27T15:25:59.759Z,23.77
2022-11-27T15:28:40.876Z,27.45
2022-11-27T15:31:50.318Z,21.00
2022-11-27T15:34:18.149Z,22.08
2022-11-27T15:36:49.743Z,21.67
2022-11-27T15:39:38.046Z,25.88
2022-11-27T15:42:09.933Z,27.00
2022-11-27T15:44:38.736Z,29.77
2022-11-27T15:47:18.721Z,19.65
2022-11-27T15:49:46.396Z,39.35
2022-11-27T15:52:14.030Z,29.75
2022-11-27T15:54:42.004Z,28.30
2022-11-27T15:57:09.989Z,29.85
2022-11-27T15:59:37.834Z,28.75
2022-11-27T16:02:06.192Z,23.98
2022-11-27T16:04:36.845Z,33.13
2022-11-27T16:07:08.240Z,30.27
2022-11-27T16:09:39.880Z,26.52
2022-11-27T16:12:07.638Z,37.72
2022-11-27T16:14:35.332Z,32.38
2022-11-27T16:17:02.967Z,38.35
2022-11-27T16:19:30.744Z,30.17
2022-11-27T16:21:58.660Z,31.90
2022-11-27T16:24:30.205Z,28.88
2022-11-27T16:27:00.204Z,29.08
2022-11-27T16:29:28.109Z,28.58
2022-11-27T16:31:57.052Z,33.25
2022-11-27T16:34:24.997Z,25.90
2022-11-27T16:36:53.733Z,24.98
2022-11-27T16:39:21.619Z,27.88
2022-11-27T16:41:49.488Z,32.13
2022-11-27T16:44:19.388Z,25.38
2022-11-27T16:46:47.262Z,26.90
2022-11-27T16:49:14.981Z,33.35
2022-11-27T16:51:43.910Z,33.10
2022-11-27T16:54:13.285Z,43.13
2022-11-27T16:56:43.392Z,44.03
2022-11-27T16:59:15.089Z,34.03
2022-11-27T17:01:44.642Z,38.03
2022-11-27T17:04:18.883Z,31.48
2022-11-27T17:06:48.362Z,29.02
2022-11-27T17:09:17.205Z,34.25
2022-11-27T17:11:48.977Z,31.75
2022-11-27T17:14:17.466Z,28.80
2022-11-27T17:16:45.510Z,35.97
2022-11-27T17:19:16.282Z,37.88
2022-11-27T17:21:46.439Z,33.33
2022-11-27T17:24:16.473Z,41.72
2022-11-27T17:26:48.181Z,45.65
2022-11-27T17:29:19.541Z,42.08
2022-11-27T17:31:47.665Z,39.53
2022-11-27T17:34:16.869Z,35.90
2022-11-27T17:36:45.738Z,34.47
2022-11-27T17:39:15.556Z,28.88
2022-11-27T17:41:45.232Z,29.75
2022-11-27T17:44:13.433Z,24.73
2022-11-27T17:46:41.504Z,32.97
2022-11-27T17:49:10.699Z,39.15
2022-11-27T17:51:41.316Z,37.70
2022-11-27T17:54:11.346Z,28.25
2022-11-27T17:56:39.727Z,39.80
2022-11-27T17:59:09.302Z,31.60
2022-11-27T18:01:37.664Z,27.15
2022-11-27T18:04:06.234Z,27.65
2022-11-27T18:06:34.542Z,27.15
2022-11-27T18:09:03.613Z,25.75
2022-11-27T18:11:33.823Z,21.95
2022-11-27T18:14:02.111Z,29.05
2022-11-27T18:16:36.982Z,21.70
2022-11-27T18:19:07.586Z,27.80
2022-11-27T18:21:36.548Z,33.00
2022-11-27T18:24:23.605Z,35.42
2022-11-27T18:27:10.761Z,25.65
2022-11-27T18:29:41.373Z,34.13
2022-11-27T18:32:09.629Z,24.27
2022-11-27T18:34:37.576Z,26.02
2022-11-27T18:37:06.099Z,33.10
2022-11-27T18:39:35.565Z,24.77
2022-11-27T18:42:05.136Z,19.05
2022-11-27T18:44:41.198Z,24.88
2022-11-27T18:47:14.060Z,25.73
2022-11-27T18:52:11.946Z,31.33
2022-11-27T18:54:39.895Z,30.65
2022-11-27T18:57:10.298Z,31.38
2022-11-27T18:59:40.438Z,28.98
2022-11-27T19:02:09.865Z,24.00
2022-11-27T19:04:37.819Z,26.83
2022-11-27T19:07:05.770Z,24.60
2022-11-27T19:09:33.906Z,24.58
2022-11-27T19:12:02.155Z,20.88
2022-11-27T19:14:31.020Z,25.02
2022-11-27T19:17:00.424Z,25.45
2022-11-27T19:24:48.597Z,33.38
2022-11-27T19:27:16.252Z,27.23
2022-11-27T19:29:44.160Z,24.88
2022-11-27T19:32:11.981Z,106.40
2022-11-27T19:34:40.065Z,33.90
2022-11-27T19:37:08.773Z,22.40
2022-11-27T19:39:36.520Z,30.50
2022-11-27T19:42:06.751Z,26.40
2022-11-27T19:44:35.226Z,23.67
2022-11-27T19:47:03.855Z,29.80
2022-11-27T19:49:31.908Z,27.20
2022-11-27T19:52:00.343Z,34.78
2022-11-27T19:54:29.727Z,36.47
2022-11-27T19:56:57.868Z,31.80
2022-11-27T19:59:26.481Z,29.52
2022-11-27T20:01:55.802Z,30.95
2022-11-27T20:04:29.035Z,34.10
2022-11-27T20:06:56.919Z,35.63
2022-11-27T20:09:24.672Z,27.55
2022-11-27T20:11:52.512Z,33.15
2022-11-27T20:14:20.252Z,23.90
2022-11-27T20:16:48.192Z,32.63
2022-11-27T20:19:16.075Z,39.78
2022-11-27T20:21:45.735Z,27.40
2022-11-27T20:24:14.467Z,33.67
2022-11-27T20:26:43.285Z,36.63
2022-11-27T20:29:15.725Z,29.38
2022-11-27T20:31:45.014Z,24.05
2022-11-27T20:34:21.588Z,30.38
2022-11-27T20:36:49.751Z,28.83
2022-11-27T20:39:21.273Z,22.67
2022-11-27T20:41:51.917Z,29.30
2022-11-27T20:44:20.288Z,25.27
2022-11-27T20:46:48.776Z,18.00
2022-11-27T20:49:17.919Z,25.98
2022-11-27T20:51:48.915Z,25.02
2022-11-27T20:54:19.936Z,26.55
2022-11-27T20:56:51.062Z,19.05
2022-11-27T20:59:20.082Z,29.38
2022-11-27T21:01:49.089Z,20.80
2022-11-27T21:04:26.228Z,19.33
2022-11-27T21:06:54.526Z,22.15
2022-11-27T21:09:22.393Z,26.42
2022-11-27T21:11:50.188Z,15.57
2022-11-27T21:14:18.596Z,19.33
2022-11-27T21:16:49.287Z,30.58
2022-11-27T23:32:36.706Z,46.57
2022-11-27T23:35:04.539Z,35.42
2022-11-27T23:37:32.420Z,40.70
2022-11-27T23:40:00.226Z,42.15
2022-11-27T23:42:27.955Z,51.00
2022-11-27T23:44:55.631Z,90.20
2022-11-27T23:47:23.381Z,57.65
2022-11-27T23:49:51.049Z,43.42
2022-11-27T23:52:18.682Z,94.85
2022-11-27T23:54:46.515Z,40.42
2022-11-27T23:57:14.304Z,43.22
2022-11-27T23:59:41.948Z,37.70
